Map

Track Data

SID SEASON NUMBER BASIN SUBBASIN NAME ISO_TIME NATURE LAT LON WMO_WIND WMO_PRES WMO_AGENCY TRACK_TYPE DIST2LAND LANDFALL IFLAG USA_AGENCY USA_ATCF_ID USA_LAT USA_LON USA_RECORD USA_STATUS USA_WIND USA_PRES USA_SSHS USA_R34_NE USA_R34_SE USA_R34_SW USA_R34_NW USA_R50_NE USA_R50_SE USA_R50_SW USA_R50_NW USA_R64_NE USA_R64_SE USA_R64_SW USA_R64_NW USA_POCI USA_ROCI USA_RMW USA_EYE TOKYO_LAT TOKYO_LON TOKYO_GRADE TOKYO_WIND TOKYO_PRES TOKYO_R50_DIR TOKYO_R50_LONG TOKYO_R50_SHORT TOKYO_R30_DIR TOKYO_R30_LONG TOKYO_R30_SHORT TOKYO_LAND CMA_LAT CMA_LON CMA_CAT CMA_WIND CMA_PRES HKO_LAT HKO_LON HKO_CAT HKO_WIND HKO_PRES NEWDELHI_LAT NEWDELHI_LON NEWDELHI_GRADE NEWDELHI_WIND NEWDELHI_PRES NEWDELHI_CI NEWDELHI_DP NEWDELHI_POCI REUNION_LAT REUNION_LON REUNION_TYPE REUNION_WIND REUNION_PRES REUNION_TNUM REUNION_CI REUNION_RMW REUNION_R34_NE REUNION_R34_SE REUNION_R34_SW REUNION_R34_NW REUNION_R50_NE REUNION_R50_SE REUNION_R50_SW REUNION_R50_NW REUNION_R64_NE REUNION_R64_SE REUNION_R64_SW REUNION_R64_NW BOM_LAT BOM_LON BOM_TYPE BOM_WIND BOM_PRES BOM_TNUM BOM_CI BOM_RMW BOM_R34_NE BOM_R34_SE BOM_R34_SW BOM_R34_NW BOM_R50_NE BOM_R50_SE BOM_R50_SW BOM_R50_NW BOM_R64_NE BOM_R64_SE BOM_R64_SW BOM_R64_NW BOM_ROCI BOM_POCI BOM_EYE BOM_POS_METHOD BOM_PRES_METHOD NADI_LAT NADI_LON NADI_CAT NADI_WIND NADI_PRES WELLINGTON_LAT WELLINGTON_LON WELLINGTON_WIND WELLINGTON_PRES DS824_LAT DS824_LON DS824_STAGE DS824_WIND DS824_PRES TD9636_LAT TD9636_LON TD9636_STAGE TD9636_WIND TD9636_PRES TD9635_LAT TD9635_LON TD9635_WIND TD9635_PRES TD9635_ROCI NEUMANN_LAT NEUMANN_LON NEUMANN_CLASS NEUMANN_WIND NEUMANN_PRES MLC_LAT MLC_LON MLC_CLASS MLC_WIND MLC_PRES USA_GUST BOM_GUST BOM_GUST_PER REUNION_GUST REUNION_GUST_PER USA_SEAHGT USA_SEARAD_NE USA_SEARAD_SE USA_SEARAD_SW USA_SEARAD_NW STORM_SPEED STORM_DIR
1996248N15319 1996 78 NA NA HORTENSE 1996-09-03 12:00:00 TS 14.9000 -41.0000 25 1006 hurdat_atl main 1637 1578 O_____________ hurdat_atl AL081996 14.9000 -41.0000 TD 25 1006 -1 17 271
1996248N15319 1996 78 NA NA HORTENSE 1996-09-03 15:00:00 TS 14.9108 -41.8775 main 1571 1515 P_____________ AL081996 14.9108 -41.8775 TD 27 1006 -1 16 270
1996248N15319 1996 78 NA NA HORTENSE 1996-09-03 18:00:00 TS 14.9000 -42.7000 30 1006 hurdat_atl main 1515 1469 O_____________ hurdat_atl AL081996 14.9000 -42.7000 TD 30 1006 -1 15 268
1996248N15319 1996 78 NA NA HORTENSE 1996-09-03 21:00:00 TS 14.8571 -43.4300 main 1469 1416 P_____________ AL081996 14.8571 -43.4300 TD 30 1006 -1 14 266
1996248N15319 1996 78 NA NA HORTENSE 1996-09-04 00:00:00 TS 14.8000 -44.1000 30 1006 hurdat_atl main 1416 1379 O_____________ hurdat_atl AL081996 14.8000 -44.1000 TD 30 1006 -1 13 265
1996248N15319 1996 78 NA NA HORTENSE 1996-09-04 03:00:00 TS 14.7498 -44.7650 main 1364 1324 P_____________ AL081996 14.7498 -44.7650 TD 30 1006 -1 13 265
1996248N15319 1996 78 NA NA HORTENSE 1996-09-04 06:00:00 TS 14.7000 -45.4000 30 1006 hurdat_atl main 1324 1277 O_____________ hurdat_atl AL081996 14.7000 -45.4000 TD 30 1006 -1 12 265
1996248N15319 1996 78 NA NA HORTENSE 1996-09-04 09:00:00 TS 14.6349 -46.0301 main 1277 1241 P_____________ AL081996 14.6349 -46.0301 TD 30 1006 -1 12 265
1996248N15319 1996 78 NA NA HORTENSE 1996-09-04 12:00:00 TS 14.6000 -46.6000 30 1006 hurdat_atl main 1241 1218 O_____________ hurdat_atl AL081996 14.6000 -46.6000 TD 30 1006 -1 10 270
1996248N15319 1996 78 NA NA HORTENSE 1996-09-04 15:00:00 TS 14.6273 -47.0725 main 1212 1201 P_____________ AL081996 14.6273 -47.0725 TD 30 1006 -1 9 277
1996248N15319 1996 78 NA NA HORTENSE 1996-09-04 18:00:00 TS 14.7000 -47.5000 30 1006 hurdat_atl main 1201 1191 O_____________ hurdat_atl AL081996 14.7000 -47.5000 TD 30 1006 -1 9 283
1996248N15319 1996 78 NA NA HORTENSE 1996-09-04 21:00:00 TS 14.8148 -47.9349 main 1191 1178 P_____________ AL081996 14.8148 -47.9349 TD 30 1006 -1 9 283
1996248N15319 1996 78 NA NA HORTENSE 1996-09-05 00:00:00 TS 14.9000 -48.4000 30 1006 hurdat_atl main 1178 1156 O_____________ hurdat_atl AL081996 14.9000 -48.4000 TD 30 1006 -1 9 274
1996248N15319 1996 78 NA NA HORTENSE 1996-09-05 03:00:00 TS 14.8872 -48.8975 main 1156 1121 P_____________ AL081996 14.8872 -48.8975 TD 30 1006 -1 11 265
1996248N15319 1996 78 NA NA HORTENSE 1996-09-05 06:00:00 TS 14.8000 -49.5000 30 1006 hurdat_atl main 1121 1078 O_____________ hurdat_atl AL081996 14.8000 -49.5000 TD 30 1006 -1 13 260
1996248N15319 1996 78 NA NA HORTENSE 1996-09-05 09:00:00 TS 14.6576 -50.2702 main 1073 1021 P_____________ AL081996 14.6576 -50.2702 TD 30 1006 -1 16 259
1996248N15319 1996 78 NA NA HORTENSE 1996-09-05 12:00:00 TS 14.5000 -51.1000 30 1006 hurdat_atl main 1021 984 O_____________ hurdat_atl AL081996 14.5000 -51.1000 TD 30 1006 -1 16 260
1996248N15319 1996 78 NA NA HORTENSE 1996-09-05 15:00:00 TS 14.3700 -51.8950 main 984 957 P_____________ AL081996 14.3700 -51.8950 TD 30 1006 -1 15 262
1996248N15319 1996 78 NA NA HORTENSE 1996-09-05 18:00:00 TS 14.3000 -52.6000 30 1006 hurdat_atl main 957 947 O_____________ hurdat_atl AL081996 14.3000 -52.6000 TD 30 1006 -1 12 268
1996248N15319 1996 78 NA NA HORTENSE 1996-09-05 21:00:00 TS 14.3197 -53.1598 main 938 904 P_____________ AL081996 14.3197 -53.1598 TD 30 1006 -1 10 276
1996248N15319 1996 78 NA NA HORTENSE 1996-09-06 00:00:00 TS 14.4000 -53.6000 30 1006 hurdat_atl main 904 880 O_____________ hurdat_atl AL081996 14.4000 -53.6000 TD 30 1006 -1 8 283
1996248N15319 1996 78 NA NA HORTENSE 1996-09-06 03:00:00 TS 14.4998 -53.9650 main 870 848 P_____________ AL081996 14.4998 -53.9650 TD 30 1006 -1 7 286
1996248N15319 1996 78 NA NA HORTENSE 1996-09-06 06:00:00 TS 14.6000 -54.3000 30 1006 hurdat_atl main 848 811 O_____________ hurdat_atl AL081996 14.6000 -54.3000 TD 30 1006 -1 7 282
1996248N15319 1996 78 NA NA HORTENSE 1996-09-06 09:00:00 TS 14.6500 -54.7076 main 817 781 P_____________ AL081996 14.6500 -54.7076 TD 30 1006 -1 8 277
1996248N15319 1996 78 NA NA HORTENSE 1996-09-06 12:00:00 TS 14.7000 -55.1000 30 1006 hurdat_atl main 781 763 O_____________ hurdat_atl AL081996 14.7000 -55.1000 TD 30 1006 -1 6 282
1996248N15319 1996 78 NA NA HORTENSE 1996-09-06 15:00:00 TS 14.7846 -55.3627 main 761 742 P_____________ AL081996 14.7846 -55.3627 TD 30 1006 -1 6 289
1996248N15319 1996 78 NA NA HORTENSE 1996-09-06 18:00:00 TS 14.9000 -55.7000 30 1006 hurdat_atl main 742 701 O_____________ hurdat_atl AL081996 14.9000 -55.7000 TD 30 1006 -1 9 286
1996248N15319 1996 78 NA NA HORTENSE 1996-09-06 21:00:00 TS 15.0502 -56.2974 main 708 664 P_____________ AL081996 15.0502 -56.2974 TD 30 1006 -1 13 283
1996248N15319 1996 78 NA NA HORTENSE 1996-09-07 00:00:00 TS 15.2000 -57.0000 30 1006 hurdat_atl main 664 633 O_____________ hurdat_atl AL081996 15.2000 -57.0000 TD 30 1006 -1 13 281
1996248N15319 1996 78 NA NA HORTENSE 1996-09-07 03:00:00 TS 15.3073 -57.6501 main 627 602 P_____________ AL081996 15.3073 -57.6501 TD 32 1005 -1 13 279
1996248N15319 1996 78 NA NA HORTENSE 1996-09-07 06:00:00 TS 15.4000 -58.3000 35 1005 hurdat_atl main 602 579 O_____________ hurdat_atl AL081996 15.4000 -58.3000 TS 35 1005 0 13 279
1996248N15319 1996 78 NA NA HORTENSE 1996-09-07 09:00:00 TS 15.5001 -58.9875 main 579 568 P_____________ AL081996 15.5001 -58.9875 TS 37 1004 0 13 279
1996248N15319 1996 78 NA NA HORTENSE 1996-09-07 12:00:00 TS 15.6000 -59.6000 40 1004 hurdat_atl main 569 563 O_____________ hurdat_atl AL081996 15.6000 -59.6000 TS 40 1004 0 10 281
1996248N15319 1996 78 NA NA HORTENSE 1996-09-07 15:00:00 TS 15.6922 -60.0376 main 570 566 P_____________ AL081996 15.6922 -60.0376 TS 40 1002 0 8 285
1996248N15319 1996 78 NA CS HORTENSE 1996-09-07 18:00:00 TS 15.8000 -60.4000 40 1000 hurdat_atl main 574 566 O_____________ hurdat_atl AL081996 15.8000 -60.4000 TS 40 1000 0 8 290
1996248N15319 1996 78 NA CS HORTENSE 1996-09-07 21:00:00 TS 15.9649 -60.7999 main 566 523 P_____________ AL081996 15.9649 -60.7999 TS 45 998 0 8 291
1996248N15319 1996 78 NA CS HORTENSE 1996-09-08 00:00:00 TS 16.1000 -61.2000 50 996 hurdat_atl main 523 485 O_____________ hurdat_atl AL081996 16.1000 -61.2000 TS 50 996 0 8 282
1996248N15319 1996 78 NA CS HORTENSE 1996-09-08 03:00:00 TS 16.1224 -61.6001 main 485 448 P_____________ AL081996 16.1224 -61.6001 TS 52 996 0 8 270
1996248N15319 1996 78 NA CS HORTENSE 1996-09-08 06:00:00 TS 16.1000 -62.0000 55 996 hurdat_atl main 448 413 O_____________ hurdat_atl AL081996 16.1000 -62.0000 TS 55 996 0 8 268
1996248N15319 1996 78 NA CS HORTENSE 1996-09-08 09:00:00 TS 16.0999 -62.4000 main 413 379 P_____________ AL081996 16.0999 -62.4000 TS 57 996 0 8 270
1996248N15319 1996 78 NA CS HORTENSE 1996-09-08 12:00:00 TS 16.1000 -62.8000 60 996 hurdat_atl main 379 346 O_____________ hurdat_atl AL081996 16.1000 -62.8000 TS 60 996 0 8 270
1996248N15319 1996 78 NA CS HORTENSE 1996-09-08 15:00:00 TS 16.1000 -63.2225 main 346 316 P_____________ AL081996 16.1000 -63.2225 TS 60 993 0 8 270
1996248N15319 1996 78 NA CS HORTENSE 1996-09-08 18:00:00 TS 16.1000 -63.6000 60 991 hurdat_atl main 316 293 O_____________ hurdat_atl AL081996 16.1000 -63.6000 TS 60 991 0 6 270
1996248N15319 1996 78 NA CS HORTENSE 1996-09-08 21:00:00 TS 16.0999 -63.8800 main 293 279 P_____________ AL081996 16.0999 -63.8800 TS 60 990 0 5 270
1996248N15319 1996 78 NA CS HORTENSE 1996-09-09 00:00:00 TS 16.1000 -64.1000 60 990 hurdat_atl main 279 265 O_____________ hurdat_atl AL081996 16.1000 -64.1000 TS 60 990 0 4 268
1996248N15319 1996 78 NA CS HORTENSE 1996-09-09 03:00:00 TS 16.0849 -64.3001 main 265 253 P_____________ AL081996 16.0849 -64.3001 TS 65 988 1 4 270
1996248N15319 1996 78 NA CS HORTENSE 1996-09-09 06:00:00 TS 16.1000 -64.5000 70 987 hurdat_atl main 253 232 O_____________ hurdat_atl AL081996 16.1000 -64.5000 HU 70 987 1 4 282
1996248N15319 1996 78 NA CS HORTENSE 1996-09-09 09:00:00 TS 16.1775 -64.7350 main 232 208 P_____________ AL081996 16.1775 -64.7350 HU 70 986 1 5 293
1996248N15319 1996 78 NA CS HORTENSE 1996-09-09 12:00:00 TS 16.3000 -65.0000 70 985 hurdat_atl main 208 186 O_____________ hurdat_atl AL081996 16.3000 -65.0000 HU 70 985 1 6 295
1996248N15319 1996 78 NA CS HORTENSE 1996-09-09 15:00:00 TS 16.4275 -65.3000 main 186 158 P_____________ AL081996 16.4275 -65.3000 HU 70 987 1 7 298
1996248N15319 1996 78 NA CS HORTENSE 1996-09-09 18:00:00 TS 16.6000 -65.6000 70 990 hurdat_atl main 158 130 O_____________ hurdat_atl AL081996 16.6000 -65.6000 HU 70 990 1 6 306
1996248N15319 1996 78 NA CS HORTENSE 1996-09-09 21:00:00 TS 16.8048 -65.8353 main 130 90 P_____________ AL081996 16.8048 -65.8353 HU 70 989 1 7 316
1996248N15319 1996 78 NA CS HORTENSE 1996-09-10 00:00:00 TS 17.1000 -66.1000 70 989 hurdat_atl main 90 49 O_____________ hurdat_atl AL081996 17.1000 -66.1000 HU 70 989 1 10 321
1996248N15319 1996 78 NA CS HORTENSE 1996-09-10 03:00:00 TS 17.5650 -66.4696 main 44 0 P_____________ AL081996 17.5650 -66.4696 HU 70 989 1 12 320
1996248N15319 1996 78 NA NA HORTENSE 1996-09-10 06:00:00 TS 18.0000 -66.9000 70 989 hurdat_atl main 0 0 O_____________ hurdat_atl AL081996 18.0000 -66.9000 L HU 70 989 1 10 305
1996248N15319 1996 78 NA CS HORTENSE 1996-09-10 09:00:00 TS 18.1726 -67.3654 main 21 21 P_____________ AL081996 18.1726 -67.3654 HU 67 989 1 9 289
1996248N15319 1996 78 NA CS HORTENSE 1996-09-10 12:00:00 TS 18.3000 -67.8000 65 989 hurdat_atl main 53 21 O_____________ hurdat_atl AL081996 18.3000 -67.8000 HU 65 989 1 8 299
1996248N15319 1996 78 NA CS HORTENSE 1996-09-10 15:00:00 TS 18.5774 -68.1300 main 21 10 P_____________ AL081996 18.5774 -68.1300 HU 65 989 1 8 317
1996248N15319 1996 78 NA NA HORTENSE 1996-09-10 18:00:00 TS 18.9000 -68.4000 65 990 hurdat_atl main 23 23 O_____________ hurdat_atl AL081996 18.9000 -68.4000 HU 65 990 1 8 322
1996248N15319 1996 78 NA NA HORTENSE 1996-09-10 21:00:00 TS 19.1999 -68.6502 main 35 35 P_____________ AL081996 19.1999 -68.6502 HU 67 986 1 8 322
1996248N15319 1996 78 NA NA HORTENSE 1996-09-11 00:00:00 TS 19.5000 -68.9000 70 982 hurdat_atl main 46 45 O_____________ hurdat_atl AL081996 19.5000 -68.9000 HU 70 982 1 8 319
1996248N15319 1996 78 NA NA HORTENSE 1996-09-11 03:00:00 TS 19.7850 -69.1927 main 56 56 P_____________ AL081996 19.7850 -69.1927 HU 72 978 1 8 317
1996248N15319 1996 78 NA NA HORTENSE 1996-09-11 06:00:00 TS 20.1000 -69.5000 75 975 hurdat_atl main 76 76 O_____________ hurdat_atl AL081996 20.1000 -69.5000 HU 75 975 1 9 321
1996248N15319 1996 78 NA NA HORTENSE 1996-09-11 09:00:00 TS 20.4925 -69.8075 main 102 102 P_____________ AL081996 20.4925 -69.8075 HU 82 973 1 10 325
1996248N15319 1996 78 NA NA HORTENSE 1996-09-11 12:00:00 TS 20.9000 -70.1000 90 971 hurdat_atl main 133 133 O_____________ hurdat_atl AL081996 20.9000 -70.1000 HU 90 971 2 9 326
1996248N15319 1996 78 NA NA HORTENSE 1996-09-11 15:00:00 TS 21.2574 -70.3577 main 169 169 P_____________ AL081996 21.2574 -70.3577 HU 92 970 2 8 326
1996248N15319 1996 78 NA NA HORTENSE 1996-09-11 18:00:00 TS 21.6000 -70.6000 95 970 hurdat_atl main 201 201 O_____________ hurdat_atl AL081996 21.6000 -70.6000 HU 95 970 2 8 326
1996248N15319 1996 78 NA NA HORTENSE 1996-09-11 21:00:00 TS 21.9500 -70.8650 main 234 225 P_____________ AL081996 21.9500 -70.8650 HU 97 968 3 8 327
1996248N15319 1996 78 NA NA HORTENSE 1996-09-12 00:00:00 TS 22.3000 -71.1000 100 967 hurdat_atl main 231 229 O_____________ hurdat_atl AL081996 22.3000 -71.1000 HU 100 967 3 8 332
1996248N15319 1996 78 NA NA HORTENSE 1996-09-12 03:00:00 TS 22.6349 -71.2578 main 235 235 P_____________ AL081996 22.6349 -71.2578 HU 102 964 3 8 338
1996248N15319 1996 78 NA NA HORTENSE 1996-09-12 06:00:00 TS 23.0000 -71.4000 105 962 hurdat_atl main 260 260 O_____________ hurdat_atl AL081996 23.0000 -71.4000 HU 105 962 3 9 337
1996248N15319 1996 78 NA NA HORTENSE 1996-09-12 09:00:00 TS 23.4426 -71.6222 main 284 284 P_____________ AL081996 23.4426 -71.6222 HU 110 960 3 10 338
1996248N15319 1996 78 NA NA HORTENSE 1996-09-12 12:00:00 TS 23.9000 -71.8000 115 959 hurdat_atl main 326 326 O_____________ hurdat_atl AL081996 23.9000 -71.8000 HU 115 959 4 9 346
1996248N15319 1996 78 NA NA HORTENSE 1996-09-12 15:00:00 TS 24.2774 -71.8525 main 364 364 P_____________ AL081996 24.2774 -71.8525 HU 115 952 4 8 1
1996248N15319 1996 78 NA NA HORTENSE 1996-09-12 18:00:00 TS 24.7000 -71.8000 115 946 hurdat_atl main 410 410 O_____________ hurdat_atl AL081996 24.7000 -71.8000 HU 115 946 4 10 10
1996248N15319 1996 78 NA NA HORTENSE 1996-09-12 21:00:00 TS 25.2626 -71.6579 main 477 477 P_____________ AL081996 25.2626 -71.6579 HU 117 940 4 12 13
1996248N15319 1996 78 NA NA HORTENSE 1996-09-13 00:00:00 TS 25.9000 -71.5000 120 935 hurdat_atl main 547 547 O_____________ hurdat_atl AL081996 25.9000 -71.5000 HU 120 935 4 13 8
1996248N15319 1996 78 NA NA HORTENSE 1996-09-13 03:00:00 TS 26.5049 -71.4640 main 611 611 P_____________ AL081996 26.5049 -71.4640 HU 117 938 4 13 4
1996248N15319 1996 78 NA NA HORTENSE 1996-09-13 06:00:00 TS 27.2000 -71.4000 115 942 hurdat_atl main 689 689 O_____________ hurdat_atl AL081996 27.2000 -71.4000 HU 115 942 4 16 9
1996248N15319 1996 78 NA NA HORTENSE 1996-09-13 09:00:00 TS 28.0476 -71.1876 main 749 749 P_____________ AL081996 28.0476 -71.1876 HU 107 945 3 19 14
1996248N15319 1996 78 NA NA HORTENSE 1996-09-13 12:00:00 TS 29.0000 -70.9000 100 948 hurdat_atl main 826 763 O_____________ hurdat_atl AL081996 29.0000 -70.9000 HU 100 948 3 20 15
1996248N15319 1996 78 NA NA HORTENSE 1996-09-13 15:00:00 TS 29.9624 -70.6215 main 761 714 P_____________ AL081996 29.9624 -70.6215 HU 100 948 3 21 15
1996248N15319 1996 78 NA NA HORTENSE 1996-09-13 18:00:00 TS 31.0000 -70.3000 100 948 hurdat_atl main 707 660 O_____________ hurdat_atl AL081996 31.0000 -70.3000 HU 100 948 3 22 15
1996248N15319 1996 78 NA NA HORTENSE 1996-09-13 21:00:00 TS 32.1048 -69.9359 main 659 612 P_____________ AL081996 32.1048 -69.9359 HU 95 948 2 24 16
1996248N15319 1996 78 NA NA HORTENSE 1996-09-14 00:00:00 TS 33.3000 -69.5000 90 948 hurdat_atl main 614 601 O_____________ hurdat_atl AL081996 33.3000 -69.5000 HU 90 948 2 26 18
1996248N15319 1996 78 NA NA HORTENSE 1996-09-14 03:00:00 TS 34.5774 -68.9864 main 604 601 P_____________ AL081996 34.5774 -68.9864 HU 90 951 2 28 19
1996248N15319 1996 78 NA NA HORTENSE 1996-09-14 06:00:00 TS 35.9000 -68.4000 90 955 hurdat_atl main 638 545 O_____________ hurdat_atl AL081996 35.9000 -68.4000 HU 90 955 2 27 21
1996248N15319 1996 78 NA NA HORTENSE 1996-09-14 09:00:00 TS 37.1318 -67.8035 main 545 442 P_____________ AL081996 37.1318 -67.8035 HU 87 957 2 28 22
1996248N15319 1996 78 NA NA HORTENSE 1996-09-14 12:00:00 TS 38.5000 -67.1000 85 960 hurdat_atl main 432 351 O_____________ hurdat_atl AL081996 38.5000 -67.1000 HU 85 960 2 34 22
1996248N15319 1996 78 NA NA HORTENSE 1996-09-14 15:00:00 TS 40.2728 -66.1995 main 353 177 P_____________ AL081996 40.2728 -66.1995 HU 80 960 1 38 22
1996248N15319 1996 78 NA NA HORTENSE 1996-09-14 18:00:00 TS 42.0000 -65.2000 75 960 hurdat_atl main 167 68 O_____________ hurdat_atl AL081996 42.0000 -65.2000 HU 75 960 1 34 25
1996248N15319 1996 78 NA NA HORTENSE 1996-09-14 21:00:00 TS 43.3642 -64.2181 main 65 26 P_____________ AL081996 43.3642 -64.2181 HU 72 965 1 27 31
1996248N15319 1996 78 NA NA HORTENSE 1996-09-15 00:00:00 TS 44.3000 -63.3000 70 970 hurdat_atl main 26 0 O_____________ hurdat_atl AL081996 44.3000 -63.3000 HU 70 970 1 19 41
1996248N15319 1996 78 NA NA HORTENSE 1996-09-15 03:00:00 TS 44.8000 -62.5000 70 978 hurdat_atl main 0 0 O_____________ hurdat_atl AL081996 44.8000 -62.5000 L HU 70 978 1 17 47
1996248N15319 1996 78 NA NA HORTENSE 1996-09-15 06:00:00 TS 45.5000 -61.5000 65 980 hurdat_atl main 0 0 O_____________ hurdat_atl AL081996 45.5000 -61.5000 HU 65 980 1 19 49
1996248N15319 1996 78 NA NA HORTENSE 1996-09-15 09:00:00 TS 46.0315 -60.4583 main 0 0 P_____________ AL081996 46.0315 -60.4583 HU 62 981 0 18 64
1996248N15319 1996 78 NA NA HORTENSE 1996-09-15 12:00:00 TS 46.3000 -59.1000 60 982 hurdat_atl main 54 54 O_____________ hurdat_atl AL081996 46.3000 -59.1000 TS 60 982 0 24 86
1996248N15319 1996 78 NA NA HORTENSE 1996-09-15 15:00:00 TS 46.2214 -56.9354 main 112 77 P_____________ AL081996 46.2214 -56.9354 TS 50 989 0 28 96
1996248N15319 1996 78 NA NA HORTENSE 1996-09-15 18:00:00 ET 46.0000 -55.0000 40 996 hurdat_atl main 103 91 O_____________ hurdat_atl AL081996 46.0000 -55.0000 EX 40 996 -4 17 96
1996248N15319 1996 78 NA NA HORTENSE 1996-09-15 21:00:00 ET 46.0401 -54.5004 main 91 76 P_____________ AL081996 46.0401 -54.5004 EX 40 997 -4 7 90
1996248N15319 1996 78 NA NA HORTENSE 1996-09-16 00:00:00 ET 46.0000 -54.0000 40 998 hurdat_atl main 73 68 O_____________ hurdat_atl AL081996 46.0000 -54.0000 EX 40 998 -4 15 106
1996248N15319 1996 78 NA NA HORTENSE 1996-09-16 03:00:00 ET 45.6262 -52.3596 main 126 126 P_____________ AL081996 45.6262 -52.3596 EX 37 998 -4 30 110
1996248N15319 1996 78 NA NA HORTENSE 1996-09-16 06:00:00 ET 45.0000 -50.0000 35 999 hurdat_atl main 304 O_____________ hurdat_atl AL081996 45.0000 -50.0000 EX 35 999 -4 35 111

About IBTrACS Database

This database is a web-friendly format of International Best Track Archive for Climate Stewardship (IBTrACS), a global best track data archive curated by NOAA dating back to 1842.

Updated: 2021-10-08